createdAt,value
2023-05-13T00:00:54.800Z,99916.94
2023-05-13T00:01:56.416Z,99917.84
2023-05-13T00:02:58.193Z,99923.22
2023-05-13T00:03:59.869Z,99923.66
2023-05-13T00:05:01.614Z,99912.69
2023-05-13T00:06:03.348Z,99914.63
2023-05-13T00:07:05.103Z,99922.97
2023-05-13T00:08:06.759Z,99925.53
2023-05-13T00:09:08.375Z,99925.84
2023-05-13T00:10:10.227Z,99922.44
2023-05-13T00:11:11.896Z,99916.28
2023-05-13T00:12:13.532Z,99922.69
2023-05-13T00:13:15.195Z,99926.50
2023-05-13T00:14:16.816Z,99922.75
2023-05-13T00:15:18.486Z,99923.16
2023-05-13T00:16:20.190Z,99919.06
2023-05-13T00:17:21.890Z,99883.25
2023-05-13T00:18:23.560Z,99915.63
2023-05-13T00:19:25.229Z,99922.41
2023-05-13T00:20:26.845Z,99917.06
2023-05-13T00:21:28.453Z,99909.19
2023-05-13T00:22:30.075Z,99923.88
2023-05-13T00:23:31.667Z,99914.56
2023-05-13T00:24:33.315Z,99907.81
2023-05-13T00:25:34.935Z,99920.09
2023-05-13T00:26:36.556Z,99909.06
2023-05-13T00:27:38.242Z,99924.84
2023-05-13T00:28:39.876Z,99925.13
2023-05-13T00:29:41.569Z,99924.94
2023-05-13T00:30:43.230Z,99934.00
2023-05-13T00:31:44.963Z,99922.22
2023-05-13T00:32:46.952Z,99923.72
2023-05-13T00:33:48.638Z,99921.09
2023-05-13T00:34:50.358Z,99892.81
2023-05-13T00:35:51.786Z,99932.09
2023-05-13T00:36:53.386Z,99930.69
2023-05-13T00:37:55.073Z,99935.53
2023-05-13T00:38:56.506Z,99937.47
2023-05-13T00:39:58.205Z,99888.72
2023-05-13T00:40:59.860Z,99926.34
2023-05-13T00:42:02.233Z,99927.97
2023-05-13T00:43:03.945Z,99921.53
2023-05-13T00:44:05.653Z,99916.34
2023-05-13T00:45:07.562Z,99926.94
2023-05-13T00:46:09.280Z,99926.50
2023-05-13T00:47:11.214Z,99920.94
2023-05-13T00:48:13.036Z,99920.88
2023-05-13T00:49:14.679Z,99928.25
2023-05-13T00:50:16.309Z,99925.41
2023-05-13T00:51:17.949Z,99918.59
2023-05-13T00:52:19.585Z,99926.72
2023-05-13T00:53:21.208Z,99899.84
2023-05-13T00:54:22.844Z,99887.25
2023-05-13T00:55:24.458Z,99921.97
2023-05-13T00:56:26.537Z,99874.16
2023-05-13T00:57:28.153Z,99906.22
2023-05-13T00:58:29.900Z,99924.94
2023-05-13T00:59:31.616Z,99918.78
2023-05-13T01:00:33.225Z,99929.66
2023-05-13T01:01:48.164Z,99925.59
2023-05-13T01:03:13.964Z,99901.78
2023-05-13T01:04:24.492Z,99917.63
2023-05-13T01:05:41.945Z,99918.50
2023-05-13T01:07:16.565Z,99921.66
2023-05-13T01:08:23.772Z,99918.25
2023-05-13T01:09:39.970Z,99905.97
2023-05-13T01:10:42.689Z,99921.47
2023-05-13T01:11:44.299Z,99927.16
2023-05-13T01:12:46.370Z,99923.88
2023-05-13T01:13:52.505Z,99900.31
2023-05-13T01:15:08.959Z,99916.69
2023-05-13T01:16:21.637Z,99930.34
2023-05-13T01:17:37.964Z,99931.13
2023-05-13T01:18:47.974Z,99912.13
2023-05-13T01:19:54.950Z,99869.66
2023-05-13T01:20:56.792Z,99924.00
2023-05-13T01:21:58.554Z,99921.59
2023-05-13T01:23:00.171Z,99926.84
2023-05-13T01:24:01.849Z,99924.75
2023-05-13T01:25:03.635Z,99921.38
2023-05-13T01:26:05.593Z,99923.72
2023-05-13T01:27:08.533Z,99927.78
2023-05-13T01:28:10.846Z,99919.28
2023-05-13T01:29:14.671Z,99915.09
2023-05-13T01:30:16.614Z,99926.50
2023-05-13T01:31:19.166Z,99915.41
2023-05-13T01:32:21.652Z,99924.88
2023-05-13T01:33:23.493Z,99930.13
2023-05-13T01:34:25.123Z,99921.47
2023-05-13T01:35:27.107Z,99918.16
2023-05-13T01:36:28.768Z,99932.63
2023-05-13T01:37:30.387Z,99925.09
2023-05-13T01:38:32.074Z,99939.69
2023-05-13T01:39:34.072Z,99940.91
2023-05-13T01:40:39.611Z,99935.66
2023-05-13T01:41:41.953Z,99939.94
2023-05-13T01:42:43.426Z,99933.84
2023-05-13T01:43:45.083Z,99937.31
2023-05-13T01:44:46.722Z,99936.75
2023-05-13T01:45:48.418Z,99923.00
2023-05-13T01:46:50.510Z,99885.06
2023-05-13T01:47:52.913Z,99927.34
2023-05-13T01:48:54.571Z,99927.72
2023-05-13T01:49:56.216Z,99930.34
2023-05-13T01:50:58.216Z,99915.84
2023-05-13T01:51:59.864Z,99934.00
2023-05-13T01:53:03.221Z,99930.69
2023-05-13T01:54:05.131Z,99916.78
2023-05-13T01:55:08.686Z,99913.66
2023-05-13T01:56:10.186Z,99931.38
2023-05-13T01:57:11.925Z,99933.59
2023-05-13T01:58:13.844Z,99927.34
2023-05-13T01:59:15.656Z,99915.53
2023-05-13T02:00:17.739Z,99919.88
2023-05-13T02:01:23.830Z,99927.50
2023-05-13T02:02:25.532Z,99918.84
2023-05-13T02:03:27.382Z,99921.97
2023-05-13T02:04:29.073Z,99931.19
2023-05-13T02:05:30.693Z,99925.94
2023-05-13T02:06:32.307Z,99934.81
2023-05-13T02:07:34.020Z,99932.81
2023-05-13T02:08:35.499Z,99932.69
2023-05-13T02:09:38.086Z,99938.34
2023-05-13T02:10:40.475Z,99934.00
2023-05-13T02:11:41.888Z,99927.22
2023-05-13T02:12:43.302Z,99931.06
2023-05-13T02:13:44.823Z,99935.16
2023-05-13T02:14:46.313Z,99923.19
2023-05-13T02:15:47.709Z,99931.41
2023-05-13T02:16:49.326Z,99930.31
2023-05-13T02:17:50.919Z,99931.13
2023-05-13T02:18:52.437Z,99930.78
2023-05-13T02:20:01.477Z,99924.81
2023-05-13T02:21:02.936Z,99925.81
2023-05-13T02:22:04.453Z,99921.81
2023-05-13T02:23:05.845Z,99929.44
2023-05-13T02:24:08.410Z,99932.53
2023-05-13T02:25:09.965Z,99926.13
2023-05-13T02:26:11.569Z,99927.22
2023-05-13T02:27:13.057Z,99930.88
2023-05-13T02:28:14.602Z,99930.19
2023-05-13T02:29:16.317Z,99929.28
2023-05-13T02:30:17.735Z,99928.88
2023-05-13T02:31:19.671Z,99939.69
2023-05-13T02:32:21.113Z,99933.03
2023-05-13T02:33:22.559Z,99930.13
2023-05-13T02:34:24.212Z,99929.50
2023-05-13T02:35:25.621Z,99925.84
2023-05-13T02:36:27.039Z,99931.19
2023-05-13T02:37:28.683Z,99929.78
2023-05-13T02:38:35.846Z,99921.88
2023-05-13T02:39:38.375Z,99932.09
2023-05-13T02:40:39.860Z,99927.66
2023-05-13T02:41:41.629Z,99920.94
2023-05-13T02:42:43.368Z,99925.31
2023-05-13T02:43:45.885Z,99929.13
2023-05-13T02:44:47.321Z,99927.66
2023-05-13T02:45:49.782Z,99932.94
2023-05-13T02:46:51.350Z,99930.47
2023-05-13T02:47:53.035Z,99927.97
2023-05-13T02:48:54.503Z,99942.78
2023-05-13T02:49:56.155Z,99939.09
2023-05-13T02:50:57.661Z,99934.22
2023-05-13T02:51:59.180Z,99933.41
2023-05-13T02:53:07.120Z,99942.41
2023-05-13T02:54:10.782Z,99935.34
2023-05-13T02:55:13.175Z,99933.81
2023-05-13T02:56:14.670Z,99934.94
2023-05-13T02:57:16.071Z,99930.88
2023-05-13T02:58:18.164Z,99930.97
2023-05-13T02:59:21.479Z,99934.03
2023-05-13T03:00:23.199Z,99942.28
2023-05-13T03:01:24.911Z,99937.81
2023-05-13T03:02:26.432Z,99935.09
2023-05-13T03:03:27.953Z,99937.25
2023-05-13T03:04:29.480Z,99941.81
2023-05-13T03:05:30.881Z,99939.19
2023-05-13T03:06:32.300Z,99941.09
2023-05-13T03:07:33.749Z,99939.88
2023-05-13T03:08:35.175Z,99939.13
2023-05-13T03:09:36.596Z,99945.25
2023-05-13T03:10:38.020Z,99941.53
2023-05-13T03:11:39.444Z,99941.22
2023-05-13T03:12:40.886Z,99936.34
2023-05-13T03:13:42.297Z,99942.03
2023-05-13T03:14:44.403Z,99938.19
2023-05-13T03:15:45.967Z,99937.88
2023-05-13T03:16:47.448Z,99937.47
2023-05-13T03:17:49.456Z,99944.13
2023-05-13T03:18:51.932Z,99935.84
2023-05-13T03:19:53.726Z,99939.88
2023-05-13T03:20:57.659Z,99936.59
2023-05-13T03:21:59.363Z,99933.63
2023-05-13T03:23:00.811Z,99940.88
2023-05-13T03:24:02.318Z,99940.09
2023-05-13T03:25:05.532Z,99940.94
2023-05-13T03:26:14.483Z,99946.94
2023-05-13T03:27:15.986Z,99944.63
2023-05-13T03:28:18.104Z,99945.78
2023-05-13T03:29:19.540Z,99942.75
2023-05-13T03:30:21.273Z,99948.41
2023-05-13T03:31:31.082Z,99948.06
2023-05-13T03:32:34.803Z,99942.09
2023-05-13T03:33:36.380Z,99951.28
2023-05-13T03:34:38.006Z,99931.19
2023-05-13T03:35:39.892Z,99932.97
2023-05-13T03:36:41.826Z,99952.16
2023-05-13T03:37:43.450Z,99950.38
2023-05-13T03:38:46.672Z,99914.81
2023-05-13T03:39:48.306Z,99948.53
2023-05-13T03:40:50.019Z,99958.88
2023-05-13T03:41:52.151Z,99952.91
2023-05-13T03:42:53.784Z,99956.72
2023-05-13T03:43:57.687Z,99954.03
2023-05-13T03:44:59.355Z,99955.91
2023-05-13T03:46:00.981Z,99952.47
2023-05-13T03:47:02.968Z,99964.63
2023-05-13T03:48:04.803Z,99956.25
2023-05-13T03:49:06.490Z,99966.88
2023-05-13T03:50:08.852Z,99967.66
2023-05-13T03:51:15.786Z,99954.63
2023-05-13T03:52:17.433Z,99967.09
2023-05-13T03:53:20.260Z,99973.06
2023-05-13T03:54:22.296Z,99965.47
2023-05-13T03:55:23.947Z,99965.47
2023-05-13T03:56:25.573Z,99950.22
2023-05-13T03:57:27.196Z,99958.63
2023-05-13T03:58:28.852Z,99963.69
2023-05-13T03:59:32.048Z,99944.25
2023-05-13T04:00:33.729Z,99967.44
2023-05-13T04:01:35.996Z,99962.06
2023-05-13T04:02:37.981Z,99965.09
2023-05-13T04:03:40.600Z,99948.84
2023-05-13T04:04:42.599Z,99967.34
2023-05-13T04:05:45.776Z,99960.94
2023-05-13T04:06:47.417Z,99959.88
2023-05-13T04:07:49.021Z,99970.72
2023-05-13T04:08:51.214Z,99968.06
2023-05-13T04:09:52.866Z,99965.97
2023-05-13T04:10:54.463Z,99971.34
2023-05-13T04:11:56.080Z,99972.78
2023-05-13T04:12:57.844Z,99977.28
2023-05-13T04:13:59.467Z,99965.91
2023-05-13T04:15:01.109Z,99979.88
2023-05-13T04:16:03.005Z,99951.81
2023-05-13T04:17:04.853Z,99978.53
2023-05-13T04:18:06.605Z,99974.91
2023-05-13T04:19:09.448Z,99970.41
2023-05-13T04:20:11.375Z,99974.47
2023-05-13T04:21:12.988Z,99978.00
2023-05-13T04:22:14.610Z,99979.22
2023-05-13T04:23:16.247Z,99976.59
2023-05-13T04:24:17.868Z,99982.69
2023-05-13T04:25:19.545Z,99976.59
2023-05-13T04:26:21.189Z,99979.06
2023-05-13T04:27:23.745Z,99979.53
2023-05-13T04:28:27.639Z,99990.09
2023-05-13T04:29:29.284Z,99991.41
2023-05-13T04:30:31.200Z,99979.75
2023-05-13T04:31:32.928Z,99988.69
2023-05-13T04:32:34.672Z,99990.19
2023-05-13T04:33:36.395Z,99983.91
2023-05-13T04:34:38.059Z,99996.84
2023-05-13T04:35:39.696Z,99984.75
2023-05-13T04:36:42.377Z,99991.69
2023-05-13T04:37:44.444Z,99993.16
2023-05-13T04:38:49.039Z,99990.06
2023-05-13T04:39:51.842Z,99987.53
2023-05-13T04:40:56.871Z,99949.19
2023-05-13T04:42:07.027Z,99990.22
2023-05-13T04:43:08.652Z,99988.81
2023-05-13T04:44:26.480Z,99993.59
2023-05-13T04:45:28.129Z,99984.38
2023-05-13T04:46:30.741Z,99986.66
2023-05-13T04:47:32.546Z,100000.69
2023-05-13T04:48:34.214Z,100000.28
2023-05-13T04:49:36.250Z,99997.41
2023-05-13T04:50:38.233Z,100002.38
2023-05-13T04:51:40.552Z,99993.06
2023-05-13T04:52:42.890Z,99963.75
2023-05-13T04:53:44.914Z,100001.88
2023-05-13T04:54:47.033Z,99986.00
2023-05-13T04:55:49.269Z,99958.22
2023-05-13T04:56:51.261Z,99998.19
2023-05-13T04:57:53.047Z,99993.72
2023-05-13T04:58:54.703Z,99976.59
2023-05-13T04:59:57.328Z,99957.78
2023-05-13T05:00:59.697Z,99984.03
2023-05-13T05:02:01.475Z,99973.97
2023-05-13T05:03:03.418Z,99998.19
2023-05-13T05:04:05.853Z,99995.59
2023-05-13T05:05:08.732Z,99983.50
2023-05-13T05:06:10.413Z,99962.03
2023-05-13T05:07:12.094Z,100002.34
2023-05-13T05:08:13.725Z,99992.50
2023-05-13T05:09:15.621Z,99998.81
2023-05-13T05:10:17.314Z,99997.81
2023-05-13T05:11:25.264Z,99994.84
2023-05-13T05:12:27.426Z,99997.56
2023-05-13T05:13:29.064Z,99997.88
2023-05-13T05:14:30.720Z,99970.28
2023-05-13T05:15:32.491Z,99996.97
2023-05-13T05:16:36.023Z,100001.91
2023-05-13T05:17:38.466Z,99990.47
2023-05-13T05:18:40.242Z,99998.06
2023-05-13T05:19:42.189Z,100000.38
2023-05-13T05:20:43.887Z,99997.00
2023-05-13T05:21:51.504Z,99999.97
2023-05-13T05:22:53.455Z,99949.97
2023-05-13T05:23:57.735Z,100000.72
2023-05-13T05:25:00.330Z,100005.25
2023-05-13T05:26:11.103Z,99983.78
2023-05-13T05:27:14.126Z,100003.84
2023-05-13T05:28:15.751Z,99999.59
2023-05-13T05:29:18.329Z,100009.00
2023-05-13T05:30:20.301Z,100002.78
2023-05-13T05:31:28.954Z,100013.88
2023-05-13T05:32:33.080Z,100013.91
2023-05-13T05:33:36.691Z,100008.44
2023-05-13T05:34:38.520Z,100008.00
2023-05-13T05:35:40.307Z,100013.03
2023-05-13T05:36:43.939Z,100016.78
2023-05-13T05:37:47.098Z,99997.84
2023-05-13T05:38:48.927Z,100005.56
2023-05-13T05:39:50.608Z,100000.94
2023-05-13T05:40:52.299Z,99985.13
2023-05-13T05:41:53.965Z,100000.66
2023-05-13T05:42:55.603Z,99998.78
2023-05-13T05:43:57.709Z,100010.53
2023-05-13T05:44:59.404Z,99999.91
2023-05-13T05:46:01.060Z,99998.84
2023-05-13T05:47:02.707Z,100005.66
2023-05-13T05:48:06.218Z,100000.50
2023-05-13T05:49:08.048Z,100006.09
2023-05-13T05:50:10.102Z,100012.06
2023-05-13T05:51:11.739Z,100007.09
2023-05-13T05:52:13.614Z,100010.16
2023-05-13T05:53:15.301Z,99999.19
2023-05-13T05:54:16.946Z,100004.56
2023-05-13T05:55:18.752Z,100000.13
2023-05-13T05:56:20.359Z,99996.22
2023-05-13T05:57:21.965Z,100001.94
2023-05-13T05:58:23.771Z,99999.75
2023-05-13T05:59:25.840Z,100005.88
2023-05-13T06:00:27.462Z,100006.00
2023-05-13T06:01:29.960Z,99993.03
2023-05-13T06:02:31.664Z,100000.19
2023-05-13T06:03:33.519Z,100008.09
2023-05-13T06:04:35.448Z,100003.97
2023-05-13T06:05:38.595Z,100014.06
2023-05-13T06:06:40.282Z,100001.59
2023-05-13T06:07:42.078Z,100005.31
2023-05-13T06:08:43.675Z,100003.91
2023-05-13T06:09:45.318Z,100003.13
2023-05-13T06:10:47.297Z,99989.84
2023-05-13T06:11:49.386Z,99992.94
2023-05-13T06:12:50.997Z,99988.34
2023-05-13T06:13:53.842Z,99996.22
2023-05-13T06:14:56.473Z,99996.13
2023-05-13T06:15:58.206Z,99998.88
2023-05-13T06:16:59.885Z,99991.41
2023-05-13T06:18:01.541Z,100003.22
2023-05-13T06:19:03.273Z,99976.28
2023-05-13T06:20:05.481Z,100009.69
2023-05-13T06:21:06.910Z,100009.84
2023-05-13T06:22:11.178Z,100009.59
2023-05-13T06:23:12.817Z,100012.19
2023-05-13T06:24:14.435Z,100008.00
2023-05-13T06:25:16.190Z,100006.91
2023-05-13T06:26:17.844Z,99998.13
2023-05-13T06:27:19.451Z,100014.91
2023-05-13T06:28:21.131Z,100015.09
2023-05-13T06:29:25.400Z,100012.81
2023-05-13T06:30:27.975Z,99999.84
2023-05-13T06:31:29.758Z,100014.78
2023-05-13T06:32:32.272Z,99999.06
2023-05-13T06:33:33.930Z,100020.72
2023-05-13T06:34:37.246Z,100015.47
2023-05-13T06:35:39.251Z,100013.69
2023-05-13T06:36:41.706Z,100013.44
2023-05-13T06:37:43.383Z,100019.28
2023-05-13T06:38:45.973Z,100017.41
2023-05-13T06:39:47.678Z,100003.13
2023-05-13T06:40:49.927Z,100013.00
2023-05-13T06:41:52.351Z,100019.06
2023-05-13T06:42:57.192Z,100008.84
2023-05-13T06:44:04.923Z,100010.00
2023-05-13T06:45:12.955Z,100015.53
2023-05-13T06:46:15.148Z,100003.00
2023-05-13T06:47:16.725Z,100030.28
2023-05-13T06:48:18.549Z,100021.16
2023-05-13T06:49:20.184Z,100011.06
2023-05-13T06:50:22.065Z,100020.50
2023-05-13T06:51:24.648Z,100006.88
2023-05-13T06:52:26.282Z,100021.69
2023-05-13T06:53:27.908Z,100019.78
2023-05-13T06:54:29.554Z,99997.69
2023-05-13T06:55:31.332Z,100023.66
2023-05-13T06:56:33.041Z,100013.13
2023-05-13T06:57:42.422Z,100009.34
2023-05-13T06:58:44.771Z,100023.81
2023-05-13T06:59:46.407Z,100028.66
2023-05-13T07:00:48.332Z,100001.06
2023-05-13T07:01:50.017Z,100015.94
2023-05-13T07:02:51.749Z,100014.41
2023-05-13T07:03:53.503Z,100020.84
2023-05-13T07:04:55.176Z,100020.56
2023-05-13T07:05:56.801Z,99995.84
2023-05-13T07:06:58.432Z,100016.38
2023-05-13T07:08:00.121Z,100008.03
2023-05-13T07:09:02.733Z,100010.38
2023-05-13T07:10:07.188Z,99994.13
2023-05-13T07:11:11.529Z,100013.47
2023-05-13T07:12:13.998Z,100020.63
2023-05-13T07:13:15.618Z,100015.06
2023-05-13T07:14:17.271Z,100001.38
2023-05-13T07:15:18.980Z,100017.31
2023-05-13T07:16:20.652Z,100018.50
2023-05-13T07:17:22.412Z,100016.66
2023-05-13T07:18:24.117Z,100019.34
2023-05-13T07:19:25.836Z,100017.44
2023-05-13T07:20:27.330Z,100007.25
2023-05-13T07:21:29.560Z,100012.19
2023-05-13T07:22:31.243Z,99993.97
2023-05-13T07:23:32.850Z,100016.00
2023-05-13T07:24:34.440Z,100012.63
2023-05-13T07:25:36.103Z,100000.00
2023-05-13T07:26:37.752Z,100003.69
2023-05-13T07:27:39.481Z,100015.47
2023-05-13T07:28:41.146Z,100009.44
2023-05-13T07:29:42.839Z,100016.69
2023-05-13T07:30:44.505Z,99996.59
2023-05-13T07:31:46.177Z,100024.19
2023-05-13T07:32:48.027Z,100021.06
2023-05-13T07:33:49.693Z,100020.75
2023-05-13T07:34:51.332Z,100014.31
2023-05-13T07:35:52.952Z,100023.00
2023-05-13T07:36:54.608Z,100020.00
2023-05-13T07:37:56.211Z,100026.16
2023-05-13T07:38:57.855Z,100023.53
2023-05-13T07:39:59.471Z,100026.94
2023-05-13T07:41:01.077Z,100013.69
2023-05-13T07:42:03.539Z,100007.16
2023-05-13T07:43:05.187Z,100028.00
2023-05-13T07:44:06.870Z,100031.53
2023-05-13T07:45:08.960Z,100010.66
2023-05-13T07:46:10.573Z,100009.44
2023-05-13T07:47:13.061Z,100027.28
2023-05-13T07:48:15.364Z,100025.34
2023-05-13T07:49:16.993Z,100023.53
2023-05-13T07:50:18.649Z,100012.84
2023-05-13T07:51:20.087Z,100031.25
2023-05-13T07:52:21.716Z,100014.31
2023-05-13T07:53:23.339Z,100026.03
2023-05-13T07:54:24.951Z,100037.66
2023-05-13T07:55:26.639Z,100027.16
2023-05-13T07:56:28.303Z,100036.69
2023-05-13T07:57:29.928Z,100034.88
2023-05-13T07:58:31.621Z,100028.88
2023-05-13T07:59:33.255Z,100025.09
2023-05-13T08:00:34.881Z,100037.56
2023-05-13T08:01:36.535Z,100029.38
2023-05-13T08:02:39.099Z,100018.81
2023-05-13T08:03:41.011Z,100048.28
2023-05-13T08:04:42.780Z,100039.59
2023-05-13T08:05:44.501Z,100041.09
2023-05-13T08:06:46.217Z,100042.31
2023-05-13T08:07:47.868Z,100008.22
2023-05-13T08:08:49.549Z,100046.84
2023-05-13T08:09:51.228Z,100025.22
2023-05-13T08:10:52.927Z,100046.06
2023-05-13T08:11:54.560Z,100024.13
2023-05-13T08:12:56.342Z,100048.72
2023-05-13T08:13:57.981Z,100056.63
2023-05-13T08:15:00.377Z,100058.59
2023-05-13T08:16:02.140Z,100057.75
2023-05-13T08:17:05.574Z,100060.47
2023-05-13T08:18:07.264Z,100051.25
2023-05-13T08:19:09.343Z,100046.16
2023-05-13T08:20:11.378Z,100047.00
2023-05-13T08:21:13.096Z,100056.78
2023-05-13T08:22:14.720Z,100073.72
2023-05-13T08:23:16.161Z,100063.97
2023-05-13T08:24:17.598Z,100071.44
2023-05-13T08:25:19.083Z,100075.97
2023-05-13T08:26:20.546Z,100071.44
2023-05-13T08:27:21.985Z,100083.63
2023-05-13T08:28:23.602Z,100061.53
2023-05-13T08:29:25.219Z,100081.34
2023-05-13T08:30:26.836Z,100075.19
2023-05-13T08:31:28.496Z,100084.16
2023-05-13T08:32:30.161Z,100078.94
2023-05-13T08:33:32.097Z,100092.16
2023-05-13T08:34:33.721Z,100079.84
2023-05-13T08:35:35.355Z,100075.88
2023-05-13T08:36:37.018Z,100084.75
2023-05-13T08:37:38.649Z,100063.22
2023-05-13T08:38:40.316Z,100083.91
2023-05-13T08:39:41.918Z,100079.06
2023-05-13T08:40:43.537Z,100080.47
2023-05-13T08:41:45.152Z,100072.34
2023-05-13T08:42:49.825Z,100083.09
2023-05-13T08:43:51.988Z,100081.81
2023-05-13T08:44:53.431Z,100085.34
2023-05-13T08:45:55.102Z,100071.03
2023-05-13T08:47:02.516Z,100079.19
2023-05-13T08:48:04.433Z,100081.78
2023-05-13T08:49:06.913Z,100089.38
2023-05-13T08:50:08.948Z,100085.44
2023-05-13T08:51:10.580Z,100076.25
2023-05-13T08:52:12.216Z,100084.19
2023-05-13T08:53:13.866Z,100087.16
2023-05-13T08:54:15.570Z,100075.09
2023-05-13T08:55:17.372Z,100084.25
2023-05-13T08:56:19.064Z,100078.69
2023-05-13T08:57:20.669Z,100084.41
2023-05-13T08:58:22.320Z,100073.03
2023-05-13T08:59:23.949Z,100086.75
2023-05-13T09:00:25.583Z,100091.00
2023-05-13T09:01:27.247Z,100089.84
2023-05-13T09:02:28.916Z,100080.91
2023-05-13T09:03:30.574Z,100059.03
2023-05-13T09:04:33.019Z,100055.19
2023-05-13T09:05:38.811Z,100082.38
2023-05-13T09:06:40.953Z,100053.13
2023-05-13T09:07:42.580Z,100079.47
2023-05-13T09:08:44.201Z,100084.13
2023-05-13T09:09:45.832Z,100076.66
2023-05-13T09:10:47.443Z,100072.19
2023-05-13T09:11:49.153Z,100058.59
2023-05-13T09:12:51.881Z,100076.50
2023-05-13T09:13:59.827Z,100064.53
2023-05-13T09:15:01.246Z,100058.50
2023-05-13T09:16:02.758Z,100058.91
2023-05-13T09:17:04.365Z,100059.25
2023-05-13T09:18:06.218Z,100062.25
2023-05-13T09:19:07.812Z,100067.53
2023-05-13T09:20:10.059Z,100064.25
2023-05-13T09:21:27.216Z,100067.97
2023-05-13T09:22:28.630Z,100064.13
2023-05-13T09:23:30.038Z,100061.81
2023-05-13T09:24:31.478Z,100064.19
2023-05-13T09:25:32.892Z,100058.91
2023-05-13T09:26:34.323Z,100073.22
2023-05-13T09:27:36.183Z,100064.19
2023-05-13T09:28:37.597Z,100071.00
2023-05-13T09:29:39.015Z,100065.06
2023-05-13T09:30:40.594Z,100065.50
2023-05-13T09:31:42.409Z,100066.94
2023-05-13T09:32:43.937Z,100062.78
2023-05-13T09:33:52.109Z,100060.56
2023-05-13T09:34:53.543Z,100069.22
2023-05-13T09:35:54.974Z,100072.66
2023-05-13T09:37:00.675Z,100059.88
2023-05-13T09:38:02.102Z,100064.72
2023-05-13T09:39:03.627Z,100072.94
2023-05-13T09:40:05.548Z,100072.56
2023-05-13T09:41:06.954Z,100063.91
2023-05-13T09:42:14.731Z,100061.31
2023-05-13T09:43:16.150Z,100072.22
2023-05-13T09:44:17.557Z,100068.47
2023-05-13T09:45:19.105Z,100068.13
2023-05-13T09:46:20.591Z,100069.22
2023-05-13T09:47:22.048Z,100063.84
2023-05-13T09:48:25.749Z,100069.88
2023-05-13T09:49:27.229Z,100074.41
2023-05-13T09:50:28.678Z,100063.91
2023-05-13T09:51:30.101Z,100066.22
2023-05-13T09:52:31.624Z,100071.81
2023-05-13T09:53:33.056Z,100075.50
2023-05-13T09:54:34.563Z,100078.59
2023-05-13T09:55:36.076Z,100074.19
2023-05-13T09:56:37.535Z,100067.50
2023-05-13T09:57:39.197Z,100074.34
2023-05-13T09:58:40.652Z,100076.34
2023-05-13T09:59:42.058Z,100073.69
2023-05-13T10:00:43.899Z,100072.22
2023-05-13T10:01:45.731Z,100062.78
2023-05-13T10:02:47.272Z,100057.84
2023-05-13T10:03:48.842Z,100057.38
2023-05-13T10:04:50.754Z,100054.06
2023-05-13T10:05:52.155Z,100051.47
2023-05-13T10:06:53.599Z,100056.44
2023-05-13T10:07:55.029Z,100061.00
2023-05-13T10:08:57.939Z,100058.44
2023-05-13T10:10:00.681Z,100051.72
2023-05-13T10:11:02.112Z,100051.38
2023-05-13T10:12:03.686Z,100045.75
2023-05-13T10:13:05.668Z,100050.28
2023-05-13T10:14:07.070Z,100049.53
2023-05-13T10:15:08.571Z,100049.53
2023-05-13T10:16:10.060Z,100050.72
2023-05-13T10:17:11.724Z,100048.09
2023-05-13T10:18:13.221Z,100047.72
2023-05-13T10:19:14.830Z,100031.78
2023-05-13T10:20:16.357Z,100034.84
2023-05-13T10:21:18.821Z,100033.75
2023-05-13T10:22:29.930Z,100015.56
2023-05-13T10:23:33.393Z,100020.50
2023-05-13T10:24:37.217Z,100014.78
2023-05-13T10:25:40.048Z,100024.97
2023-05-13T10:26:41.483Z,100020.81
2023-05-13T10:27:43.009Z,100012.88
2023-05-13T10:28:44.484Z,100020.03
2023-05-13T10:29:45.878Z,100011.31
2023-05-13T10:30:49.106Z,100011.69
2023-05-13T10:31:50.604Z,100014.72
2023-05-13T10:32:52.139Z,100022.25
2023-05-13T10:33:53.588Z,100021.13
2023-05-13T10:35:00.266Z,100026.75
2023-05-13T10:36:10.793Z,100030.47
2023-05-13T10:37:15.294Z,100038.03
2023-05-13T10:38:17.001Z,100029.41
2023-05-13T10:39:38.571Z,100035.09
2023-05-13T10:40:40.040Z,100043.44
2023-05-13T10:41:43.946Z,100033.22
2023-05-13T10:43:05.659Z,100027.19
2023-05-13T10:44:09.270Z,100029.03
2023-05-13T10:45:11.259Z,100029.41
2023-05-13T10:46:12.851Z,100032.06
2023-05-13T10:47:14.339Z,100031.28
2023-05-13T10:48:16.275Z,100029.34
2023-05-13T10:49:17.910Z,100045.88
2023-05-13T10:50:23.024Z,100048.06
2023-05-13T10:51:24.851Z,100051.03
2023-05-13T10:52:28.389Z,100056.38
2023-05-13T10:53:34.540Z,100051.47
2023-05-13T10:54:36.421Z,100053.41
2023-05-13T10:55:40.955Z,100057.56
2023-05-13T10:56:42.855Z,100051.94
2023-05-13T10:58:03.483Z,100047.09
2023-05-13T10:59:05.025Z,100053.22
2023-05-13T11:00:13.226Z,100047.53
2023-05-13T11:01:26.693Z,100051.31
2023-05-13T11:02:31.281Z,100042.28
2023-05-13T11:03:32.822Z,100040.75
2023-05-13T11:04:34.363Z,100037.69
2023-05-13T11:05:38.151Z,100047.91
2023-05-13T11:06:40.380Z,100049.44
2023-05-13T11:07:41.799Z,100050.59
2023-05-13T11:08:43.920Z,100046.88
2023-05-13T11:09:51.611Z,100040.09
2023-05-13T11:10:56.245Z,100045.38
2023-05-13T11:12:00.411Z,100038.63
2023-05-13T11:13:13.902Z,100037.91
2023-05-13T11:14:15.977Z,100025.81
2023-05-13T11:15:21.284Z,100029.97
2023-05-13T11:16:22.811Z,100020.50
2023-05-13T11:17:24.255Z,100022.38
2023-05-13T11:18:31.320Z,100019.00
2023-05-13T11:19:34.489Z,100020.47
2023-05-13T11:20:51.202Z,100019.00
2023-05-13T11:21:54.683Z,100026.53
2023-05-13T11:22:56.078Z,100022.00
2023-05-13T11:24:04.437Z,100027.31
2023-05-13T11:25:06.623Z,100037.09
2023-05-13T11:26:12.481Z,100032.94
2023-05-13T11:27:14.867Z,100034.84
2023-05-13T11:28:16.794Z,100037.88
2023-05-13T11:29:34.407Z,100035.19
2023-05-13T11:30:37.215Z,100035.94
2023-05-13T11:31:42.487Z,100034.78
2023-05-13T11:32:51.864Z,100038.16
2023-05-13T11:34:08.675Z,100033.63
2023-05-13T11:35:10.094Z,100041.19
2023-05-13T11:36:11.534Z,100037.38
2023-05-13T11:37:12.948Z,100041.53
2023-05-13T11:38:14.358Z,100035.16
2023-05-13T11:39:16.591Z,100034.75
2023-05-13T11:40:21.564Z,100031.00
2023-05-13T11:41:23.179Z,100037.88
2023-05-13T11:42:24.612Z,100034.09
2023-05-13T11:43:26.012Z,100036.31
2023-05-13T11:44:27.516Z,100041.25
2023-05-13T11:45:29.217Z,100049.97
2023-05-13T11:46:30.721Z,100040.16
2023-05-13T11:47:32.238Z,100040.53
2023-05-13T11:48:33.668Z,100046.94
2023-05-13T11:49:41.663Z,100041.69
2023-05-13T11:50:43.094Z,100050.75
2023-05-13T11:51:44.508Z,100047.34
2023-05-13T11:52:46.301Z,100054.81
2023-05-13T11:53:47.735Z,100053.63
2023-05-13T11:54:49.803Z,100057.38
2023-05-13T11:55:51.212Z,100055.50
2023-05-13T11:56:52.614Z,100050.13
2023-05-13T11:57:54.069Z,100063.72
2023-05-13T11:58:55.931Z,100057.31
2023-05-13T11:59:57.396Z,100066.38
2023-05-13T12:00:58.794Z,100050.50
2023-05-13T12:02:00.699Z,100050.50
2023-05-13T12:03:02.780Z,100050.84
2023-05-13T12:04:04.276Z,100058.34
2023-05-13T12:05:08.990Z,100057.97